sensor_id;sensor_type;location;lat;lon;timestamp;P1;durP1;ratioP1;P2;durP2;ratioP2
3901;SDS011;1966;49.908;9.156;2024-01-10T00:03:04;21.43;;;10.27;;
3901;SDS011;1966;49.908;9.156;2024-01-10T00:08:04;23.60;;;9.40;;
3901;SDS011;1966;49.908;9.156;2024-01-10T00:13:04;16.70;;;8.90;;
3901;SDS011;1966;49.908;9.156;2024-01-10T00:18:03;22.57;;;10.23;;
3901;SDS011;1966;49.908;9.156;2024-01-10T00:23:04;16.83;;;9.10;;
3901;SDS011;1966;49.908;9.156;2024-01-10T00:28:04;19.30;;;10.10;;
3901;SDS011;1966;49.908;9.156;2024-01-10T00:33:03;19.33;;;9.10;;
3901;SDS011;1966;49.908;9.156;2024-01-10T00:38:04;18.47;;;9.07;;
3901;SDS011;1966;49.908;9.156;2024-01-10T00:43:04;19.97;;;9.27;;
3901;SDS011;1966;49.908;9.156;2024-01-10T00:48:03;15.67;;;8.07;;
3901;SDS011;1966;49.908;9.156;2024-01-10T00:53:04;22.00;;;9.30;;
3901;SDS011;1966;49.908;9.156;2024-01-10T00:58:03;21.57;;;10.70;;
3901;SDS011;1966;49.908;9.156;2024-01-10T01:03:03;22.80;;;9.57;;
3901;SDS011;1966;49.908;9.156;2024-01-10T01:08:03;23.50;;;10.10;;
3901;SDS011;1966;49.908;9.156;2024-01-10T01:13:03;18.10;;;9.07;;
3901;SDS011;1966;49.908;9.156;2024-01-10T01:18:03;21.20;;;9.40;;
3901;SDS011;1966;49.908;9.156;2024-01-10T01:23:02;18.57;;;8.43;;
3901;SDS011;1966;49.908;9.156;2024-01-10T01:28:01;18.27;;;9.10;;
3901;SDS011;1966;49.908;9.156;2024-01-10T01:33:02;22.50;;;9.43;;
3901;SDS011;1966;49.908;9.156;2024-01-10T01:38:02;19.67;;;9.20;;
3901;SDS011;1966;49.908;9.156;2024-01-10T01:43:11;21.03;;;9.10;;
3901;SDS011;1966;49.908;9.156;2024-01-10T01:48:15;14.07;;;8.20;;
3901;SDS011;1966;49.908;9.156;2024-01-10T01:53:15;18.63;;;8.90;;
3901;SDS011;1966;49.908;9.156;2024-01-10T01:58:14;16.50;;;8.27;;
3901;SDS011;1966;49.908;9.156;2024-01-10T02:03:15;18.43;;;8.37;;
3901;SDS011;1966;49.908;9.156;2024-01-10T02:08:14;17.03;;;8.43;;
3901;SDS011;1966;49.908;9.156;2024-01-10T02:13:14;21.27;;;9.83;;
3901;SDS011;1966;49.908;9.156;2024-01-10T02:18:13;22.97;;;9.80;;
3901;SDS011;1966;49.908;9.156;2024-01-10T02:23:14;17.13;;;8.40;;
3901;SDS011;1966;49.908;9.156;2024-01-10T02:28:14;18.87;;;9.90;;
3901;SDS011;1966;49.908;9.156;2024-01-10T02:33:13;19.77;;;9.23;;
3901;SDS011;1966;49.908;9.156;2024-01-10T02:38:13;17.33;;;9.60;;
3901;SDS011;1966;49.908;9.156;2024-01-10T02:43:12;18.50;;;8.50;;
3901;SDS011;1966;49.908;9.156;2024-01-10T02:48:13;18.70;;;9.57;;
3901;SDS011;1966;49.908;9.156;2024-01-10T02:53:12;15.30;;;7.90;;
3901;SDS011;1966;49.908;9.156;2024-01-10T02:58:11;16.60;;;9.10;;
3901;SDS011;1966;49.908;9.156;2024-01-10T03:03:10;18.70;;;8.63;;
3901;SDS011;1966;49.908;9.156;2024-01-10T03:08:11;17.43;;;8.80;;
3901;SDS011;1966;49.908;9.156;2024-01-10T03:13:10;20.17;;;9.10;;
3901;SDS011;1966;49.908;9.156;2024-01-10T03:18:10;21.33;;;9.60;;
3901;SDS011;1966;49.908;9.156;2024-01-10T03:23:09;16.10;;;8.20;;
3901;SDS011;1966;49.908;9.156;2024-01-10T03:28:10;17.40;;;9.00;;
3901;SDS011;1966;49.908;9.156;2024-01-10T03:33:09;21.77;;;10.37;;
3901;SDS011;1966;49.908;9.156;2024-01-10T03:38:08;27.83;;;11.07;;
3901;SDS011;1966;49.908;9.156;2024-01-10T03:43:09;15.90;;;8.60;;
3901;SDS011;1966;49.908;9.156;2024-01-10T03:48:10;19.63;;;9.80;;
3901;SDS011;1966;49.908;9.156;2024-01-10T03:53:09;16.77;;;8.63;;
3901;SDS011;1966;49.908;9.156;2024-01-10T03:58:10;17.97;;;9.17;;
3901;SDS011;1966;49.908;9.156;2024-01-10T04:03:09;20.93;;;9.93;;
3901;SDS011;1966;49.908;9.156;2024-01-10T04:08:08;18.03;;;9.77;;
3901;SDS011;1966;49.908;9.156;2024-01-10T04:13:07;17.90;;;8.80;;
3901;SDS011;1966;49.908;9.156;2024-01-10T04:18:08;19.03;;;9.70;;
3901;SDS011;1966;49.908;9.156;2024-01-10T04:23:07;21.93;;;10.77;;
3901;SDS011;1966;49.908;9.156;2024-01-10T04:28:06;22.10;;;10.80;;
3901;SDS011;1966;49.908;9.156;2024-01-10T04:33:06;18.23;;;9.47;;
3901;SDS011;1966;49.908;9.156;2024-01-10T04:38:06;17.87;;;9.13;;
3901;SDS011;1966;49.908;9.156;2024-01-10T04:43:05;24.83;;;10.27;;
3901;SDS011;1966;49.908;9.156;2024-01-10T04:48:05;19.93;;;10.77;;
3901;SDS011;1966;49.908;9.156;2024-01-10T04:53:04;22.80;;;11.90;;
3901;SDS011;1966;49.908;9.156;2024-01-10T04:58:05;25.83;;;10.83;;
3901;SDS011;1966;49.908;9.156;2024-01-10T05:03:04;24.57;;;10.30;;
3901;SDS011;1966;49.908;9.156;2024-01-10T05:08:04;20.93;;;10.10;;
3901;SDS011;1966;49.908;9.156;2024-01-10T05:13:05;21.03;;;9.53;;
3901;SDS011;1966;49.908;9.156;2024-01-10T05:18:04;24.90;;;11.17;;
3901;SDS011;1966;49.908;9.156;2024-01-10T05:23:04;20.57;;;10.00;;
3901;SDS011;1966;49.908;9.156;2024-01-10T05:28:03;21.20;;;9.77;;
3901;SDS011;1966;49.908;9.156;2024-01-10T05:33:04;20.90;;;10.77;;
3901;SDS011;1966;49.908;9.156;2024-01-10T05:38:03;19.37;;;10.97;;
3901;SDS011;1966;49.908;9.156;2024-01-10T05:43:03;23.13;;;10.83;;
3901;SDS011;1966;49.908;9.156;2024-01-10T05:48:04;22.63;;;11.07;;
3901;SDS011;1966;49.908;9.156;2024-01-10T05:53:04;22.27;;;11.23;;
3901;SDS011;1966;49.908;9.156;2024-01-10T05:58:03;19.50;;;10.60;;
3901;SDS011;1966;49.908;9.156;2024-01-10T06:03:04;21.93;;;10.13;;
3901;SDS011;1966;49.908;9.156;2024-01-10T06:08:03;19.07;;;9.40;;
3901;SDS011;1966;49.908;9.156;2024-01-10T06:13:03;20.93;;;10.40;;
3901;SDS011;1966;49.908;9.156;2024-01-10T06:18:04;21.20;;;10.63;;
3901;SDS011;1966;49.908;9.156;2024-01-10T06:23:03;17.70;;;9.77;;
3901;SDS011;1966;49.908;9.156;2024-01-10T06:28:03;18.33;;;9.50;;
3901;SDS011;1966;49.908;9.156;2024-01-10T06:33:03;19.50;;;10.30;;
3901;SDS011;1966;49.908;9.156;2024-01-10T06:38:07;18.50;;;10.57;;
3901;SDS011;1966;49.908;9.156;2024-01-10T06:43:07;19.80;;;8.80;;
3901;SDS011;1966;49.908;9.156;2024-01-10T06:48:06;21.00;;;10.13;;
3901;SDS011;1966;49.908;9.156;2024-01-10T06:53:07;19.83;;;10.10;;
3901;SDS011;1966;49.908;9.156;2024-01-10T06:58:07;21.70;;;11.03;;
3901;SDS011;1966;49.908;9.156;2024-01-10T07:03:06;20.13;;;10.50;;
3901;SDS011;1966;49.908;9.156;2024-01-10T07:08:06;24.33;;;10.93;;
3901;SDS011;1966;49.908;9.156;2024-01-10T07:13:06;22.30;;;10.87;;
3901;SDS011;1966;49.908;9.156;2024-01-10T07:18:06;19.97;;;9.40;;
3901;SDS011;1966;49.908;9.156;2024-01-10T07:23:05;20.03;;;8.33;;
3901;SDS011;1966;49.908;9.156;2024-01-10T07:28:04;20.67;;;10.03;;
3901;SDS011;1966;49.908;9.156;2024-01-10T07:33:05;21.40;;;10.17;;
3901;SDS011;1966;49.908;9.156;2024-01-10T07:38:05;25.90;;;10.80;;
3901;SDS011;1966;49.908;9.156;2024-01-10T07:43:05;23.60;;;10.80;;
3901;SDS011;1966;49.908;9.156;2024-01-10T07:48:06;23.70;;;11.10;;
3901;SDS011;1966;49.908;9.156;2024-01-10T07:53:06;37.13;;;13.37;;
3901;SDS011;1966;49.908;9.156;2024-01-10T07:58:05;34.67;;;14.90;;
3901;SDS011;1966;49.908;9.156;2024-01-10T08:03:06;28.10;;;12.87;;
3901;SDS011;1966;49.908;9.156;2024-01-10T08:08:06;27.23;;;12.37;;
3901;SDS011;1966;49.908;9.156;2024-01-10T08:13:05;25.37;;;12.67;;
3901;SDS011;1966;49.908;9.156;2024-01-10T08:18:04;27.30;;;13.07;;
3901;SDS011;1966;49.908;9.156;2024-01-10T08:23:06;28.17;;;14.00;;
3901;SDS011;1966;49.908;9.156;2024-01-10T08:28:06;19.47;;;10.73;;
3901;SDS011;1966;49.908;9.156;2024-01-10T08:33:05;29.37;;;13.77;;
3901;SDS011;1966;49.908;9.156;2024-01-10T08:38:07;30.53;;;14.57;;
3901;SDS011;1966;49.908;9.156;2024-01-10T08:43:07;29.37;;;12.80;;
3901;SDS011;1966;49.908;9.156;2024-01-10T08:48:06;29.57;;;13.93;;
3901;SDS011;1966;49.908;9.156;2024-01-10T08:53:05;34.03;;;15.50;;
3901;SDS011;1966;49.908;9.156;2024-01-10T08:58:06;31.53;;;15.37;;
3901;SDS011;1966;49.908;9.156;2024-01-10T09:03:06;38.80;;;15.93;;
3901;SDS011;1966;49.908;9.156;2024-01-10T09:08:05;39.37;;;18.80;;
3901;SDS011;1966;49.908;9.156;2024-01-10T09:13:04;34.23;;;18.03;;
3901;SDS011;1966;49.908;9.156;2024-01-10T09:18:05;30.50;;;14.93;;
3901;SDS011;1966;49.908;9.156;2024-01-10T09:23:04;34.93;;;16.30;;
3901;SDS011;1966;49.908;9.156;2024-01-10T09:28:04;33.37;;;16.60;;
3901;SDS011;1966;49.908;9.156;2024-01-10T09:33:03;34.17;;;16.87;;
3901;SDS011;1966;49.908;9.156;2024-01-10T09:38:04;39.00;;;21.00;;
3901;SDS011;1966;49.908;9.156;2024-01-10T09:43:03;44.90;;;19.17;;
3901;SDS011;1966;49.908;9.156;2024-01-10T09:48:03;36.70;;;17.53;;
3901;SDS011;1966;49.908;9.156;2024-01-10T09:53:05;38.17;;;18.43;;
3901;SDS011;1966;49.908;9.156;2024-01-10T09:58:04;37.80;;;15.83;;
3901;SDS011;1966;49.908;9.156;2024-01-10T10:03:04;30.73;;;15.27;;
3901;SDS011;1966;49.908;9.156;2024-01-10T10:08:07;27.60;;;14.40;;
3901;SDS011;1966;49.908;9.156;2024-01-10T10:13:07;35.97;;;18.30;;
3901;SDS011;1966;49.908;9.156;2024-01-10T10:18:13;41.03;;;19.57;;
3901;SDS011;1966;49.908;9.156;2024-01-10T10:23:14;32.47;;;16.60;;
3901;SDS011;1966;49.908;9.156;2024-01-10T10:28:15;31.73;;;16.60;;
3901;SDS011;1966;49.908;9.156;2024-01-10T10:33:15;34.90;;;16.87;;
3901;SDS011;1966;49.908;9.156;2024-01-10T10:38:17;38.67;;;18.13;;
3901;SDS011;1966;49.908;9.156;2024-01-10T10:43:18;29.70;;;15.60;;
3901;SDS011;1966;49.908;9.156;2024-01-10T10:48:19;39.77;;;17.27;;
3901;SDS011;1966;49.908;9.156;2024-01-10T10:53:20;32.43;;;15.90;;
3901;SDS011;1966;49.908;9.156;2024-01-10T10:58:20;30.83;;;15.60;;
3901;SDS011;1966;49.908;9.156;2024-01-10T11:03:20;34.60;;;16.00;;
3901;SDS011;1966;49.908;9.156;2024-01-10T11:08:21;50.50;;;26.20;;
3901;SDS011;1966;49.908;9.156;2024-01-10T11:13:27;39.77;;;22.30;;
3901;SDS011;1966;49.908;9.156;2024-01-10T11:18:32;33.63;;;17.80;;
3901;SDS011;1966;49.908;9.156;2024-01-10T11:23:42;28.57;;;15.67;;
3901;SDS011;1966;49.908;9.156;2024-01-10T11:28:43;35.30;;;18.13;;
3901;SDS011;1966;49.908;9.156;2024-01-10T11:33:42;34.70;;;17.83;;
3901;SDS011;1966;49.908;9.156;2024-01-10T11:38:47;30.10;;;17.00;;
3901;SDS011;1966;49.908;9.156;2024-01-10T11:49:06;31.53;;;15.90;;
3901;SDS011;1966;49.908;9.156;2024-01-10T11:54:07;30.90;;;17.27;;
3901;SDS011;1966;49.908;9.156;2024-01-10T11:59:07;26.10;;;14.40;;
3901;SDS011;1966;49.908;9.156;2024-01-10T12:04:08;24.03;;;13.17;;
3901;SDS011;1966;49.908;9.156;2024-01-10T12:09:09;24.50;;;12.97;;
3901;SDS011;1966;49.908;9.156;2024-01-10T12:14:10;24.80;;;14.33;;
3901;SDS011;1966;49.908;9.156;2024-01-10T12:19:10;27.50;;;14.73;;
3901;SDS011;1966;49.908;9.156;2024-01-10T12:24:10;30.37;;;15.30;;
3901;SDS011;1966;49.908;9.156;2024-01-10T12:29:09;26.23;;;15.10;;
3901;SDS011;1966;49.908;9.156;2024-01-10T12:34:09;24.43;;;14.30;;
3901;SDS011;1966;49.908;9.156;2024-01-10T12:39:08;25.70;;;15.10;;
3901;SDS011;1966;49.908;9.156;2024-01-10T12:44:10;23.67;;;14.50;;
3901;SDS011;1966;49.908;9.156;2024-01-10T12:49:09;24.90;;;15.93;;
3901;SDS011;1966;49.908;9.156;2024-01-10T12:54:09;26.67;;;16.37;;
3901;SDS011;1966;49.908;9.156;2024-01-10T12:59:09;35.07;;;16.50;;
3901;SDS011;1966;49.908;9.156;2024-01-10T13:04:09;22.80;;;15.43;;
3901;SDS011;1966;49.908;9.156;2024-01-10T13:09:10;23.50;;;16.10;;
3901;SDS011;1966;49.908;9.156;2024-01-10T13:14:10;19.07;;;12.83;;
3901;SDS011;1966;49.908;9.156;2024-01-10T13:19:10;17.77;;;12.17;;
3901;SDS011;1966;49.908;9.156;2024-01-10T13:24:09;18.67;;;12.40;;
3901;SDS011;1966;49.908;9.156;2024-01-10T13:29:08;20.27;;;12.93;;
3901;SDS011;1966;49.908;9.156;2024-01-10T13:34:09;21.30;;;13.00;;
3901;SDS011;1966;49.908;9.156;2024-01-10T13:39:09;18.13;;;12.93;;
3901;SDS011;1966;49.908;9.156;2024-01-10T13:44:13;17.37;;;11.97;;
3901;SDS011;1966;49.908;9.156;2024-01-10T13:49:13;22.23;;;14.17;;
3901;SDS011;1966;49.908;9.156;2024-01-10T13:54:13;18.43;;;12.57;;
3901;SDS011;1966;49.908;9.156;2024-01-10T13:59:12;19.80;;;13.20;;
3901;SDS011;1966;49.908;9.156;2024-01-10T14:04:13;18.37;;;12.63;;
3901;SDS011;1966;49.908;9.156;2024-01-10T14:09:12;19.57;;;11.67;;
3901;SDS011;1966;49.908;9.156;2024-01-10T14:14:12;19.63;;;13.30;;
3901;SDS011;1966;49.908;9.156;2024-01-10T14:19:11;20.83;;;13.37;;
3901;SDS011;1966;49.908;9.156;2024-01-10T14:24:11;21.60;;;12.80;;
3901;SDS011;1966;49.908;9.156;2024-01-10T14:29:11;17.90;;;11.43;;
3901;SDS011;1966;49.908;9.156;2024-01-10T14:34:10;19.83;;;12.87;;
3901;SDS011;1966;49.908;9.156;2024-01-10T14:39:09;19.33;;;11.83;;
3901;SDS011;1966;49.908;9.156;2024-01-10T14:44:12;20.33;;;11.57;;
3901;SDS011;1966;49.908;9.156;2024-01-10T14:49:11;21.03;;;11.83;;
3901;SDS011;1966;49.908;9.156;2024-01-10T14:54:10;18.00;;;11.40;;
3901;SDS011;1966;49.908;9.156;2024-01-10T14:59:11;19.23;;;11.60;;
3901;SDS011;1966;49.908;9.156;2024-01-10T15:04:11;20.03;;;12.03;;
3901;SDS011;1966;49.908;9.156;2024-01-10T15:09:10;18.37;;;12.03;;
3901;SDS011;1966;49.908;9.156;2024-01-10T15:14:09;17.80;;;10.93;;
3901;SDS011;1966;49.908;9.156;2024-01-10T15:19:10;18.97;;;10.97;;
3901;SDS011;1966;49.908;9.156;2024-01-10T15:24:09;19.20;;;11.10;;
3901;SDS011;1966;49.908;9.156;2024-01-10T15:29:08;18.60;;;10.93;;
3901;SDS011;1966;49.908;9.156;2024-01-10T15:34:07;16.93;;;10.60;;
3901;SDS011;1966;49.908;9.156;2024-01-10T15:39:08;18.67;;;10.20;;
3901;SDS011;1966;49.908;9.156;2024-01-10T15:44:10;18.33;;;9.87;;
3901;SDS011;1966;49.908;9.156;2024-01-10T15:49:10;18.23;;;10.37;;
3901;SDS011;1966;49.908;9.156;2024-01-10T15:54:10;19.57;;;11.13;;
3901;SDS011;1966;49.908;9.156;2024-01-10T15:59:10;20.53;;;11.70;;
3901;SDS011;1966;49.908;9.156;2024-01-10T16:04:10;19.70;;;10.90;;
3901;SDS011;1966;49.908;9.156;2024-01-10T16:09:11;18.40;;;9.67;;
3901;SDS011;1966;49.908;9.156;2024-01-10T16:14:10;15.97;;;9.33;;
3901;SDS011;1966;49.908;9.156;2024-01-10T16:19:09;18.53;;;9.87;;
3901;SDS011;1966;49.908;9.156;2024-01-10T16:24:11;20.30;;;9.50;;
3901;SDS011;1966;49.908;9.156;2024-01-10T16:29:10;18.63;;;12.20;;
3901;SDS011;1966;49.908;9.156;2024-01-10T16:34:09;20.73;;;12.00;;
3901;SDS011;1966;49.908;9.156;2024-01-10T16:39:10;21.63;;;11.47;;
3901;SDS011;1966;49.908;9.156;2024-01-10T16:44:09;18.00;;;10.50;;
3901;SDS011;1966;49.908;9.156;2024-01-10T16:49:09;24.90;;;12.37;;
3901;SDS011;1966;49.908;9.156;2024-01-10T16:54:08;22.33;;;12.97;;
3901;SDS011;1966;49.908;9.156;2024-01-10T16:59:09;19.33;;;11.43;;
3901;SDS011;1966;49.908;9.156;2024-01-10T17:04:08;19.03;;;10.13;;
3901;SDS011;1966;49.908;9.156;2024-01-10T17:09:07;20.90;;;9.93;;
3901;SDS011;1966;49.908;9.156;2024-01-10T17:14:06;19.77;;;9.90;;
3901;SDS011;1966;49.908;9.156;2024-01-10T17:19:08;16.73;;;9.10;;
3901;SDS011;1966;49.908;9.156;2024-01-10T17:24:07;21.97;;;10.87;;
3901;SDS011;1966;49.908;9.156;2024-01-10T17:29:07;19.17;;;10.60;;
3901;SDS011;1966;49.908;9.156;2024-01-10T17:34:06;19.37;;;10.77;;
3901;SDS011;1966;49.908;9.156;2024-01-10T17:39:07;20.93;;;11.73;;
3901;SDS011;1966;49.908;9.156;2024-01-10T17:44:06;21.60;;;11.53;;
3901;SDS011;1966;49.908;9.156;2024-01-10T17:49:06;18.77;;;10.17;;
3901;SDS011;1966;49.908;9.156;2024-01-10T17:54:07;14.83;;;9.10;;
3901;SDS011;1966;49.908;9.156;2024-01-10T17:59:06;17.13;;;9.53;;
3901;SDS011;1966;49.908;9.156;2024-01-10T18:04:06;18.10;;;9.10;;
3901;SDS011;1966;49.908;9.156;2024-01-10T18:09:07;17.97;;;9.57;;
3901;SDS011;1966;49.908;9.156;2024-01-10T18:14:06;16.87;;;9.80;;
3901;SDS011;1966;49.908;9.156;2024-01-10T18:19:05;35.33;;;17.07;;
3901;SDS011;1966;49.908;9.156;2024-01-10T18:24:06;25.83;;;13.50;;
3901;SDS011;1966;49.908;9.156;2024-01-10T18:29:05;23.70;;;12.40;;
3901;SDS011;1966;49.908;9.156;2024-01-10T18:34:05;23.20;;;12.10;;
3901;SDS011;1966;49.908;9.156;2024-01-10T18:39:07;27.07;;;11.10;;
3901;SDS011;1966;49.908;9.156;2024-01-10T18:44:07;24.37;;;11.83;;
3901;SDS011;1966;49.908;9.156;2024-01-10T18:49:07;27.37;;;14.67;;
3901;SDS011;1966;49.908;9.156;2024-01-10T18:54:08;30.30;;;13.33;;
3901;SDS011;1966;49.908;9.156;2024-01-10T18:59:07;30.50;;;14.87;;
3901;SDS011;1966;49.908;9.156;2024-01-10T19:04:06;26.97;;;14.97;;
3901;SDS011;1966;49.908;9.156;2024-01-10T19:09:05;29.30;;;17.67;;
3901;SDS011;1966;49.908;9.156;2024-01-10T19:14:06;31.67;;;16.17;;
3901;SDS011;1966;49.908;9.156;2024-01-10T19:19:05;26.90;;;12.63;;
3901;SDS011;1966;49.908;9.156;2024-01-10T19:24:05;26.77;;;14.77;;
3901;SDS011;1966;49.908;9.156;2024-01-10T19:29:05;28.27;;;13.70;;
3901;SDS011;1966;49.908;9.156;2024-01-10T19:34:04;25.80;;;15.43;;
3901;SDS011;1966;49.908;9.156;2024-01-10T19:39:05;34.33;;;15.97;;
3901;SDS011;1966;49.908;9.156;2024-01-10T19:44:06;35.00;;;15.90;;
3901;SDS011;1966;49.908;9.156;2024-01-10T19:49:05;27.93;;;14.20;;
3901;SDS011;1966;49.908;9.156;2024-01-10T19:54:04;24.63;;;13.67;;
3901;SDS011;1966;49.908;9.156;2024-01-10T19:59:03;26.50;;;14.43;;
3901;SDS011;1966;49.908;9.156;2024-01-10T20:04:04;30.40;;;14.50;;
3901;SDS011;1966;49.908;9.156;2024-01-10T20:09:03;23.30;;;12.57;;
3901;SDS011;1966;49.908;9.156;2024-01-10T20:14:04;27.00;;;13.53;;
3901;SDS011;1966;49.908;9.156;2024-01-10T20:19:05;21.43;;;11.97;;
3901;SDS011;1966;49.908;9.156;2024-01-10T20:24:04;24.83;;;13.10;;
3901;SDS011;1966;49.908;9.156;2024-01-10T20:29:04;27.80;;;13.90;;
3901;SDS011;1966;49.908;9.156;2024-01-10T20:34:05;26.53;;;13.07;;
3901;SDS011;1966;49.908;9.156;2024-01-10T20:39:04;25.63;;;14.03;;
3901;SDS011;1966;49.908;9.156;2024-01-10T20:44:03;26.80;;;12.97;;
3901;SDS011;1966;49.908;9.156;2024-01-10T20:49:02;30.43;;;14.20;;
3901;SDS011;1966;49.908;9.156;2024-01-10T20:54:03;32.47;;;14.67;;
3901;SDS011;1966;49.908;9.156;2024-01-10T20:59:02;28.53;;;13.23;;
3901;SDS011;1966;49.908;9.156;2024-01-10T21:04:02;28.23;;;13.53;;
3901;SDS011;1966;49.908;9.156;2024-01-10T21:09:01;28.63;;;14.00;;
3901;SDS011;1966;49.908;9.156;2024-01-10T21:14:02;33.07;;;16.17;;
3901;SDS011;1966;49.908;9.156;2024-01-10T21:19:01;37.93;;;17.60;;
3901;SDS011;1966;49.908;9.156;2024-01-10T21:24:01;41.00;;;18.10;;
3901;SDS011;1966;49.908;9.156;2024-01-10T21:29:03;48.47;;;18.77;;
3901;SDS011;1966;49.908;9.156;2024-01-10T21:34:02;52.53;;;20.37;;
3901;SDS011;1966;49.908;9.156;2024-01-10T21:39:02;40.30;;;16.80;;
3901;SDS011;1966;49.908;9.156;2024-01-10T21:44:03;32.13;;;15.50;;
3901;SDS011;1966;49.908;9.156;2024-01-10T21:49:03;27.10;;;13.83;;
3901;SDS011;1966;49.908;9.156;2024-01-10T21:54:02;25.03;;;13.43;;
3901;SDS011;1966;49.908;9.156;2024-01-10T21:59:01;27.70;;;13.30;;
3901;SDS011;1966;49.908;9.156;2024-01-10T22:04:03;29.40;;;12.70;;
3901;SDS011;1966;49.908;9.156;2024-01-10T22:09:02;25.83;;;12.73;;
3901;SDS011;1966;49.908;9.156;2024-01-10T22:14:01;25.00;;;12.10;;
3901;SDS011;1966;49.908;9.156;2024-01-10T22:19:02;25.43;;;11.63;;
3901;SDS011;1966;49.908;9.156;2024-01-10T22:24:01;23.13;;;13.00;;
3901;SDS011;1966;49.908;9.156;2024-01-10T22:29:00;20.80;;;12.03;;
3901;SDS011;1966;49.908;9.156;2024-01-10T22:34:01;31.33;;;14.40;;
3901;SDS011;1966;49.908;9.156;2024-01-10T22:39:01;27.80;;;13.77;;
3901;SDS011;1966;49.908;9.156;2024-01-10T22:44:00;28.80;;;12.63;;
3901;SDS011;1966;49.908;9.156;2024-01-10T22:48:59;25.53;;;12.60;;
3901;SDS011;1966;49.908;9.156;2024-01-10T22:54:00;26.80;;;13.40;;
3901;SDS011;1966;49.908;9.156;2024-01-10T22:58:59;25.27;;;13.27;;
3901;SDS011;1966;49.908;9.156;2024-01-10T23:03:58;32.73;;;14.40;;
3901;SDS011;1966;49.908;9.156;2024-01-10T23:08:59;24.67;;;11.80;;
3901;SDS011;1966;49.908;9.156;2024-01-10T23:13:59;25.70;;;12.33;;
3901;SDS011;1966;49.908;9.156;2024-01-10T23:18:58;22.47;;;12.57;;
3901;SDS011;1966;49.908;9.156;2024-01-10T23:23:57;23.33;;;12.73;;
3901;SDS011;1966;49.908;9.156;2024-01-10T23:28:58;24.80;;;11.77;;
3901;SDS011;1966;49.908;9.156;2024-01-10T23:33:57;24.07;;;12.03;;
3901;SDS011;1966;49.908;9.156;2024-01-10T23:38:57;23.80;;;13.00;;
3901;SDS011;1966;49.908;9.156;2024-01-10T23:43:56;24.27;;;12.63;;
3901;SDS011;1966;49.908;9.156;2024-01-10T23:48:57;23.30;;;13.07;;
3901;SDS011;1966;49.908;9.156;2024-01-10T23:53:56;27.30;;;12.10;;
3901;SDS011;1966;49.908;9.156;2024-01-10T23:58:55;22.83;;;12.60;;
